Time;durP1;ratioP1;P1;durP2;ratioP2;P2;SDS_P1;SDS_P2;PMS_P1;PMS_P2;Temp;Humidity;BMP_temperature;BMP_pressure;BME280_temperature;BME280_humidity;BME280_pressure;Samples;Min_cycle;Max_cycle;Signal;HPM_P1;HPM_P2
2022/01/12 00:00:56;;;;;;;13.73;8.98;;;-0.30;99.90;;;;;;4958105;28;20031;-86
2022/01/12 00:03:22;;;;;;;16.80;9.57;;;-0.30;99.90;;;;;;4959386;29;20117;-86
2022/01/12 00:05:48;;;;;;;17.25;10.13;;;-0.30;99.90;;;;;;4959245;29;20569;-85
2022/01/12 00:08:48;;;;;;;17.10;9.07;;;-0.40;99.90;;;;;;4959067;29;20063;-86
2022/01/12 00:11:14;;;;;;;16.67;9.98;;;-0.40;99.90;;;;;;4959565;29;20395;-86
2022/01/12 00:13:40;;;;;;;18.25;9.13;;;-0.40;99.90;;;;;;4959056;29;20019;-86
2022/01/12 00:16:06;;;;;;;14.23;8.65;;;-0.40;99.90;;;;;;4942969;29;20126;-85
2022/01/12 00:18:33;;;;;;;13.48;8.05;;;-0.40;99.90;;;;;;4958717;29;20534;-86
2022/01/12 00:20:59;;;;;;;14.23;8.65;;;-0.60;99.90;;;;;;4958482;29;20067;-86
2022/01/12 00:23:24;;;;;;;17.05;9.13;;;-0.70;99.90;;;;;;4958641;29;20036;-87
2022/01/12 00:26:07;;;;;;;17.83;9.57;;;-0.80;99.90;;;;;;4958642;29;20086;-86
2022/01/12 00:34:22;;;;;;;14.07;8.35;;;-0.80;99.90;;;;;;4959534;29;20042;-86
2022/01/12 00:36:48;;;;;;;15.80;9.18;;;-0.80;99.90;;;;;;4958526;29;20047;-86
2022/01/12 00:39:15;;;;;;;17.05;9.07;;;-0.80;99.90;;;;;;4942851;29;20031;-86
2022/01/12 00:41:41;;;;;;;17.60;8.93;;;-0.80;99.90;;;;;;4942796;29;20399;-86
2022/01/12 00:44:10;;;;;;;16.17;8.95;;;-0.80;99.90;;;;;;4942535;29;20027;-86
2022/01/12 00:46:38;;;;;;;17.77;9.00;;;-0.80;99.90;;;;;;4958891;29;20040;-86
2022/01/12 00:49:05;;;;;;;18.85;8.82;;;-0.80;99.90;;;;;;4958160;29;20031;-86
2022/01/12 00:55:19;;;;;;;20.42;9.55;;;-1.00;99.90;;;;;;4959932;29;20139;-86
2022/01/12 00:57:45;;;;;;;15.65;9.63;;;-1.00;99.90;;;;;;4958132;29;20066;-87
2022/01/12 01:00:12;;;;;;;19.88;10.10;;;-1.00;99.90;;;;;;4958099;29;20028;-87
2022/01/12 01:02:38;;;;;;;17.35;9.68;;;-1.10;99.90;;;;;;4958159;29;20588;-85
2022/01/12 01:05:04;;;;;;;15.30;8.93;;;-1.10;99.90;;;;;;4957914;29;20027;-86
2022/01/12 01:07:30;;;;;;;17.48;9.27;;;-1.20;99.90;;;;;;4957655;29;20031;-86
2022/01/12 01:10:07;;;;;;;17.15;9.13;;;-1.20;99.90;;;;;;4957624;29;20410;-87
2022/01/12 01:12:36;;;;;;;15.05;9.10;;;-1.30;99.90;;;;;;4956511;28;20033;-87
2022/01/12 01:15:09;;;;;;;15.85;9.52;;;-1.30;99.90;;;;;;4957082;29;20439;-86
2022/01/12 01:26:30;;;;;;;15.82;9.02;;;-1.20;99.90;;;;;;4957665;29;20031;-86
2022/01/12 01:28:56;;;;;;;16.83;9.55;;;-1.10;99.90;;;;;;4942180;29;20042;-87
2022/01/12 01:31:29;;;;;;;15.45;9.50;;;-1.30;99.90;;;;;;4941094;29;20462;-86
2022/01/12 01:33:56;;;;;;;16.05;9.32;;;-1.30;99.90;;;;;;4956778;29;20027;-86
2022/01/12 01:36:26;;;;;;;23.20;10.93;;;-1.20;99.90;;;;;;4956932;29;20031;-86
2022/01/12 01:38:53;;;;;;;16.58;10.65;;;-1.20;99.90;;;;;;4941190;29;20027;-87
2022/01/12 01:41:21;;;;;;;21.58;12.25;;;-1.30;99.90;;;;;;4941054;29;20038;-86
2022/01/12 01:53:17;;;;;;;19.77;10.05;;;-1.30;99.90;;;;;;4940870;29;20034;-87
2022/01/12 01:55:15;;;;;;;18.40;10.65;;;-1.50;99.90;;;;;;4956369;28;20042;-87
2022/01/12 01:57:42;;;;;;;18.30;10.77;;;-1.60;99.90;;;;;;4956398;29;20060;-86
2022/01/12 02:00:16;;;;;;;18.90;11.23;;;-1.70;99.90;;;;;;4940645;29;20443;-86
2022/01/12 02:02:53;;;;;;;19.45;10.40;;;-1.70;99.90;;;;;;4957850;29;20554;-87
2022/01/12 02:05:23;;;;;;;15.65;9.55;;;-1.80;99.90;;;;;;4940470;29;20050;-86
2022/01/12 02:07:49;;;;;;;18.40;10.95;;;-1.90;99.90;;;;;;4956523;29;20036;-86
2022/01/12 02:10:17;;;;;;;20.63;11.32;;;-2.10;99.90;;;;;;4956247;28;20451;-86
2022/01/12 02:12:46;;;;;;;19.08;10.63;;;-2.20;99.90;;;;;;4940635;29;20039;-86
2022/01/12 02:15:21;;;;;;;20.30;11.13;;;-2.30;99.90;;;;;;4955893;29;20055;-86
2022/01/12 02:18:01;;;;;;;20.42;11.45;;;-2.40;99.90;;;;;;4940291;29;20073;-86
2022/01/12 02:40:34;;;;;;;24.65;13.27;;;-3.40;99.90;;;;;;4955637;29;20503;-85
2022/01/12 02:51:29;;;;;;;29.98;14.30;;;-3.50;99.90;;;;;;4956991;29;20054;-86
2022/01/12 02:53:55;;;;;;;32.88;14.48;;;-3.60;99.90;;;;;;4955811;29;20105;-87
2022/01/12 02:56:27;;;;;;;31.63;14.48;;;-3.60;99.90;;;;;;4955855;29;20038;-87
2022/01/12 02:58:55;;;;;;;29.27;14.75;;;-3.70;99.90;;;;;;4939674;29;20434;-87
2022/01/12 03:04:08;;;;;;;29.48;14.82;;;-3.80;99.90;;;;;;4956360;29;20028;-86
2022/01/12 03:06:38;;;;;;;37.25;15.40;;;-3.80;99.90;;;;;;4939466;29;20043;-87
2022/01/12 03:09:06;;;;;;;33.20;15.02;;;-3.90;99.90;;;;;;4940274;29;20035;-87
2022/01/12 03:11:32;;;;;;;32.72;15.13;;;-4.00;99.90;;;;;;4939968;29;20130;-87
2022/01/12 03:14:20;;;;;;;38.00;14.15;;;-4.10;99.90;;;;;;4954386;28;20072;-86
2022/01/12 03:16:46;;;;;;;39.85;15.00;;;-4.00;99.90;;;;;;4954791;29;20483;-87
2022/01/12 03:19:18;;;;;;;32.40;14.35;;;-4.00;99.90;;;;;;4939764;29;20031;-87
2022/01/12 03:21:44;;;;;;;78.13;29.67;;;-4.00;99.90;;;;;;4955478;28;20034;-87
2022/01/12 03:24:13;;;;;;;63.58;25.08;;;-4.00;99.90;;;;;;4954837;29;20027;-87
2022/01/12 03:26:39;;;;;;;43.78;17.60;;;-3.90;99.90;;;;;;4939269;29;20032;-87
2022/01/12 03:29:05;;;;;;;43.13;17.60;;;-4.00;99.90;;;;;;4939304;29;20027;-88
2022/01/12 03:31:34;;;;;;;37.80;17.65;;;-4.00;99.90;;;;;;4955234;29;20102;-87
2022/01/12 03:34:11;;;;;;;47.70;20.40;;;-4.10;99.90;;;;;;4955114;29;20038;-88
2022/01/12 03:36:42;;;;;;;49.00;21.25;;;-4.10;99.90;;;;;;4938683;29;20099;-87
2022/01/12 03:39:14;;;;;;;43.88;19.40;;;-4.10;99.90;;;;;;4955069;29;20038;-87
2022/01/12 03:41:43;;;;;;;42.65;19.25;;;-3.90;99.90;;;;;;4938990;29;20082;-87
2022/01/12 03:44:12;;;;;;;40.65;18.02;;;-4.00;99.90;;;;;;4939140;29;20106;-88
2022/01/12 03:46:49;;;;;;;44.45;19.83;;;-4.10;99.90;;;;;;4939117;29;20038;-88
2022/01/12 03:49:18;;;;;;;42.55;18.75;;;-4.20;99.90;;;;;;4939772;29;20763;-87
2022/01/12 03:51:45;;;;;;;41.47;19.45;;;-4.20;99.90;;;;;;4939216;29;20090;-87
2022/01/12 03:54:11;;;;;;;40.75;18.55;;;-4.30;99.90;;;;;;4938964;29;20058;-88
2022/01/12 03:56:37;;;;;;;39.50;18.55;;;-4.20;99.90;;;;;;4939460;29;20035;-88
2022/01/12 03:59:04;;;;;;;42.65;19.95;;;-4.10;99.90;;;;;;4939017;29;20031;-88
2022/01/12 04:01:31;;;;;;;40.78;18.27;;;-4.10;99.90;;;;;;4939138;29;20027;-88
2022/01/12 04:04:07;;;;;;;44.70;19.02;;;-4.20;99.90;;;;;;4954726;29;20042;-88
2022/01/12 04:09:18;;;;;;;41.55;19.17;;;-4.30;99.90;;;;;;4955194;29;20070;-88
2022/01/12 04:11:45;;;;;;;42.03;17.70;;;-4.30;99.90;;;;;;4939053;29;20531;-87
2022/01/12 04:14:11;;;;;;;41.60;18.33;;;-4.30;99.90;;;;;;4939014;29;20028;-88
2022/01/12 04:16:37;;;;;;;50.92;20.52;;;-4.40;99.90;;;;;;4955087;29;20855;-87
2022/01/12 04:19:05;;;;;;;47.00;20.70;;;-4.40;99.90;;;;;;4939138;29;20521;-88
2022/01/12 04:21:40;;;;;;;46.05;20.50;;;-4.40;99.90;;;;;;4954626;29;20028;-87
2022/01/12 04:24:06;;;;;;;43.05;18.40;;;-4.30;99.90;;;;;;4938835;29;20126;-88
2022/01/12 04:26:32;;;;;;;43.53;18.55;;;-4.30;99.90;;;;;;4956476;29;20039;-88
2022/01/12 04:28:57;;;;;;;47.03;21.17;;;-4.40;99.90;;;;;;4938853;29;20094;-88
2022/01/12 04:31:24;;;;;;;48.65;22.52;;;-4.40;99.90;;;;;;4954189;29;20027;-87
2022/01/12 04:33:51;;;;;;;46.88;21.98;;;-4.50;99.90;;;;;;4954989;29;20031;-88
2022/01/12 04:36:17;;;;;;;50.08;21.67;;;-4.50;99.90;;;;;;4954629;29;20086;-87
2022/01/12 04:38:46;;;;;;;52.53;20.85;;;-4.60;99.90;;;;;;4954917;29;20023;-87
2022/01/12 04:41:13;;;;;;;47.67;19.90;;;-4.50;99.90;;;;;;4955314;29;20031;-88
2022/01/12 04:43:42;;;;;;;51.40;20.15;;;-4.40;99.90;;;;;;4954885;29;20062;-88
2022/01/12 04:46:21;;;;;;;46.53;20.10;;;-4.40;99.90;;;;;;4939242;28;20047;-87
2022/01/12 04:49:23;;;;;;;49.00;20.95;;;-4.50;99.90;;;;;;4942422;29;20031;-88
2022/01/12 04:51:51;;;;;;;56.38;21.17;;;-4.60;99.90;;;;;;4942599;29;20395;-87
2022/01/12 04:54:20;;;;;;;51.92;23.17;;;-4.60;99.90;;;;;;4958180;29;20027;-87
2022/01/12 04:56:46;;;;;;;71.70;26.08;;;-4.50;99.90;;;;;;4958535;29;20032;-87
2022/01/12 04:59:12;;;;;;;70.15;26.92;;;-4.30;99.90;;;;;;4942761;29;20038;-86
2022/01/12 05:01:48;;;;;;;64.60;27.15;;;-4.10;99.90;;;;;;4958790;29;20035;-88
2022/01/12 05:07:46;;;;;;;65.45;26.15;;;-3.90;99.90;;;;;;4959666;29;20042;-88
2022/01/12 05:10:01;;;;;;;49.92;22.63;;;-3.80;99.90;;;;;;4932911;29;20047;-88
2022/01/12 05:15:19;;;;;;;43.45;19.33;;;-4.00;99.90;;;;;;4958474;29;20032;-87
2022/01/12 05:17:45;;;;;;;53.95;21.60;;;-4.10;99.90;;;;;;4958558;29;20127;-88
2022/01/12 05:20:11;;;;;;;51.67;21.42;;;-4.10;99.90;;;;;;4942078;29;20487;-87
2022/01/12 05:22:36;;;;;;;51.90;22.45;;;-4.10;99.90;;;;;;4957814;29;20463;-87
2022/01/12 05:25:34;;;;;;;48.50;21.92;;;-4.20;99.90;;;;;;4941441;29;20028;-88
2022/01/12 05:28:00;;;;;;;49.35;22.83;;;-4.20;99.90;;;;;;4957824;29;20542;-87
2022/01/12 05:30:27;;;;;;;53.53;24.13;;;-4.10;99.90;;;;;;4957565;28;20116;-87
2022/01/12 05:32:53;;;;;;;54.95;23.85;;;-4.00;99.90;;;;;;4957095;29;20043;-87
2022/01/12 05:35:20;;;;;;;58.08;22.73;;;-4.20;99.90;;;;;;4956883;29;20027;-88
2022/01/12 05:37:47;;;;;;;56.47;22.52;;;-4.20;99.90;;;;;;4961282;29;20031;-87
2022/01/12 05:40:16;;;;;;;52.35;22.38;;;-4.30;99.90;;;;;;4945269;29;20035;-87
2022/01/12 05:42:43;;;;;;;51.95;22.45;;;-4.30;99.90;;;;;;4957740;28;20031;-88
2022/01/12 05:45:10;;;;;;;54.45;22.15;;;-4.30;99.90;;;;;;4956842;29;20027;-87
2022/01/12 05:50:12;;;;;;;56.88;23.55;;;-4.40;99.90;;;;;;4956863;29;20122;-87
2022/01/12 05:52:38;;;;;;;58.45;25.40;;;-4.40;99.90;;;;;;4940761;29;20043;-87
2022/01/12 05:55:05;;;;;;;66.65;27.10;;;-4.20;99.90;;;;;;4959601;29;20039;-88
2022/01/12 05:57:32;;;;;;;58.70;25.13;;;-4.20;99.90;;;;;;4940631;28;20090;-88
2022/01/12 05:59:59;;;;;;;58.47;24.27;;;-4.00;99.90;;;;;;4940517;29;20062;-87
2022/01/12 06:02:25;;;;;;;66.00;25.77;;;-4.00;99.90;;;;;;4940794;29;20042;-87
2022/01/12 06:04:52;;;;;;;60.05;24.95;;;-4.10;99.90;;;;;;4956800;29;20027;-87
2022/01/12 06:07:19;;;;;;;53.58;23.50;;;-4.10;99.90;;;;;;4956741;29;20042;-87
2022/01/12 06:09:44;;;;;;;56.28;23.50;;;-4.10;99.90;;;;;;4957274;29;20435;-87
2022/01/12 06:12:11;;;;;;;59.88;24.25;;;-4.20;99.90;;;;;;4941783;29;20114;-88
2022/01/12 06:14:37;;;;;;;56.65;25.02;;;-4.30;99.90;;;;;;4956807;29;20028;-87
2022/01/12 06:17:03;;;;;;;59.78;24.00;;;-4.30;99.90;;;;;;4956807;29;20042;-87
2022/01/12 06:19:29;;;;;;;57.95;23.83;;;-4.30;99.90;;;;;;4940325;29;20082;-87
2022/01/12 06:22:13;;;;;;;;;;;-4.40;99.90;;;;;;4954845;29;20475;-87
2022/01/12 06:24:40;;;;;;;82.47;32.35;;;-4.40;99.90;;;;;;4925421;29;19957;-87
2022/01/12 06:27:09;;;;;;;76.32;30.73;;;-4.30;99.90;;;;;;4956392;29;20043;-88
2022/01/12 06:32:44;;;;;;;64.18;24.98;;;-4.20;99.90;;;;;;4956288;29;20074;-87
2022/01/12 06:35:10;;;;;;;55.55;23.92;;;-4.30;99.90;;;;;;4956632;28;20031;-88
2022/01/12 06:37:36;;;;;;;55.70;24.67;;;-4.30;99.90;;;;;;4940208;29;20043;-88
2022/01/12 06:40:02;;;;;;;55.63;24.17;;;-4.30;99.90;;;;;;4956231;29;20082;-87
2022/01/12 06:42:28;;;;;;;61.70;26.75;;;-4.30;99.90;;;;;;4956050;28;20042;-87
2022/01/12 06:44:54;;;;;;;61.08;25.88;;;-4.20;99.90;;;;;;4956126;29;20039;-87
2022/01/12 06:47:20;;;;;;;59.08;26.15;;;-4.20;99.90;;;;;;4955986;29;20034;-88
2022/01/12 06:49:46;;;;;;;67.32;27.23;;;-4.10;99.90;;;;;;4956594;29;20066;-87
2022/01/12 06:52:12;;;;;;;60.55;26.63;;;-4.00;99.90;;;;;;4939767;29;20502;-88
2022/01/12 06:54:38;;;;;;;55.58;24.55;;;-4.10;99.90;;;;;;4955665;29;20031;-87
2022/01/12 06:57:05;;;;;;;58.00;24.02;;;-4.20;99.90;;;;;;4939549;29;20039;-88
2022/01/12 06:59:31;;;;;;;62.22;25.40;;;-4.20;99.90;;;;;;4940086;29;20139;-87
2022/01/12 07:01:58;;;;;;;58.42;27.30;;;-4.20;99.90;;;;;;4939520;29;20038;-87
2022/01/12 07:04:31;;;;;;;63.95;26.38;;;-4.30;99.90;;;;;;4933373;29;20394;-87
2022/01/12 07:06:56;;;;;;;60.42;26.08;;;-4.30;99.90;;;;;;4939983;29;20038;-87
2022/01/12 07:09:22;;;;;;;53.55;26.23;;;-4.20;99.90;;;;;;4955393;28;20027;-87
2022/01/12 07:11:55;;;;;;;72.68;29.88;;;-4.10;99.90;;;;;;4954765;29;20086;-88
2022/01/12 07:14:29;;;;;;;63.67;30.02;;;-4.10;99.90;;;;;;4954798;29;20070;-87
2022/01/12 07:16:56;;;;;;;63.42;28.58;;;-4.00;99.90;;;;;;4939694;29;20039;-87
2022/01/12 07:19:24;;;;;;;73.32;30.25;;;-4.00;99.90;;;;;;4939984;29;20051;-86
2022/01/12 07:21:50;;;;;;;129.98;46.72;;;-4.00;99.90;;;;;;4954944;29;20036;-85
2022/01/12 07:24:15;;;;;;;108.25;41.55;;;-3.90;99.90;;;;;;4954533;29;20028;-86
2022/01/12 07:26:41;;;;;;;75.10;33.03;;;-3.80;99.90;;;;;;4954202;29;20077;-86
2022/01/12 07:29:10;;;;;;;65.65;28.55;;;-3.70;99.90;;;;;;4938389;29;20035;-85
2022/01/12 07:31:35;;;;;;;62.85;28.38;;;-3.50;99.90;;;;;;4938336;29;20086;-86
2022/01/12 07:34:01;;;;;;;68.60;30.58;;;-3.50;99.90;;;;;;4954275;29;20122;-86
2022/01/12 07:36:27;;;;;;;58.63;28.15;;;-3.50;99.90;;;;;;4954648;28;20095;-86
2022/01/12 07:39:39;;;;;;;60.90;29.08;;;-3.40;99.90;;;;;;4938979;29;20530;-85
2022/01/12 07:42:05;;;;;;;59.17;27.77;;;-3.20;99.90;;;;;;4938767;29;20038;-87
2022/01/12 07:44:33;;;;;;;58.35;28.10;;;-3.20;99.90;;;;;;4954301;29;20039;-85
2022/01/12 07:46:59;;;;;;;73.53;35.40;;;-3.10;99.90;;;;;;4954681;28;20027;-86
2022/01/12 07:50:11;;;;;;;62.85;30.27;;;-3.00;99.90;;;;;;4938858;29;20048;-86
2022/01/12 07:52:37;;;;;;;58.53;26.73;;;-3.00;99.90;;;;;;4939374;29;20035;-87
2022/01/12 07:55:04;;;;;;;59.33;28.30;;;-2.90;99.90;;;;;;4938882;29;20035;-86
2022/01/12 07:57:30;;;;;;;60.30;29.35;;;-2.70;99.90;;;;;;4954549;29;20065;-86
2022/01/12 07:59:56;;;;;;;54.80;26.13;;;-2.60;99.90;;;;;;4954167;29;20035;-86
2022/01/12 08:02:22;;;;;;;56.03;28.33;;;-2.60;99.90;;;;;;4954965;29;20066;-86
2022/01/12 08:04:48;;;;;;;54.13;24.98;;;-2.60;99.90;;;;;;4953863;29;20074;-86
2022/01/12 08:07:13;;;;;;;45.35;24.00;;;-2.50;99.90;;;;;;4938014;29;20039;-86
2022/01/12 08:09:41;;;;;;;52.75;25.83;;;-2.50;99.90;;;;;;4938647;29;20483;-86
2022/01/12 08:12:08;;;;;;;41.80;21.48;;;-2.50;99.90;;;;;;4938139;29;20093;-86
2022/01/12 08:14:34;;;;;;;36.53;20.67;;;-2.50;99.90;;;;;;4954117;29;20035;-86
2022/01/12 08:17:00;;;;;;;34.25;17.65;;;-2.60;99.90;;;;;;4953987;29;20035;-86
2022/01/12 08:19:39;;;;;;;41.38;21.35;;;-2.70;99.90;;;;;;4938160;29;20819;-86
2022/01/12 08:22:05;;;;;;;43.40;21.42;;;-2.80;99.90;;;;;;4955702;28;20125;-86
2022/01/12 08:24:31;;;;;;;46.40;20.45;;;-2.80;99.90;;;;;;4941113;29;20106;-86
2022/01/12 08:26:56;;;;;;;42.63;21.50;;;-2.80;99.90;;;;;;4942542;29;20498;-86
2022/01/12 08:29:23;;;;;;;51.05;25.25;;;-2.90;99.90;;;;;;4958060;29;20027;-86
2022/01/12 08:31:50;;;;;;;54.78;27.23;;;-2.90;99.90;;;;;;4942072;29;20047;-86
2022/01/12 08:34:15;;;;;;;52.47;25.58;;;-2.90;99.90;;;;;;4957843;29;20054;-86
2022/01/12 08:36:42;;;;;;;49.33;20.55;;;-2.90;99.90;;;;;;4958052;29;20027;-86
2022/01/12 08:39:08;;;;;;;42.00;20.73;;;-2.80;99.90;;;;;;4958037;29;20045;-85
2022/01/12 08:41:35;;;;;;;44.80;22.95;;;-2.60;99.90;;;;;;4941939;29;20118;-85
2022/01/12 08:44:02;;;;;;;39.17;21.08;;;-2.50;99.90;;;;;;4941928;29;20039;-87
2022/01/12 08:46:28;;;;;;;36.33;18.30;;;-2.30;99.90;;;;;;4958184;29;20126;-87
2022/01/12 08:48:54;;;;;;;39.38;20.90;;;-2.20;99.90;;;;;;4958417;28;20825;-87
2022/01/12 08:51:20;;;;;;;46.40;22.52;;;-1.90;99.90;;;;;;4958492;28;20058;-87
2022/01/12 08:53:45;;;;;;;58.10;27.48;;;-1.70;99.90;;;;;;4958339;29;20034;-87
2022/01/12 08:56:11;;;;;;;42.80;22.23;;;-1.50;99.90;;;;;;4957568;29;20043;-86
2022/01/12 08:58:37;;;;;;;48.28;23.88;;;-1.20;99.90;;;;;;4942376;29;20035;-88
2022/01/12 09:01:04;;;;;;;32.15;18.08;;;-0.90;99.90;;;;;;4958366;29;20058;-87
2022/01/12 09:03:30;;;;;;;26.58;14.88;;;-0.60;99.90;;;;;;4941570;29;20501;-87
2022/01/12 09:05:56;;;;;;;25.77;13.57;;;-0.50;99.90;;;;;;4941453;29;20023;-87
2022/01/12 09:08:22;;;;;;;21.27;12.63;;;-0.50;99.90;;;;;;4957588;29;20488;-86
2022/01/12 09:10:48;;;;;;;25.50;15.15;;;-0.50;99.90;;;;;;4958023;29;20035;-87
2022/01/12 09:13:14;;;;;;;18.45;10.68;;;-0.40;99.90;;;;;;4957512;29;20039;-87
2022/01/12 09:15:40;;;;;;;19.55;10.30;;;-0.40;99.90;;;;;;4941552;29;20515;-87
2022/01/12 09:18:05;;;;;;;19.85;11.82;;;-0.40;99.90;;;;;;4957499;29;20042;-87
2022/01/12 09:20:32;;;;;;;19.27;11.45;;;-0.50;99.90;;;;;;4957620;29;20463;-87
2022/01/12 09:22:58;;;;;;;18.15;12.18;;;-0.50;99.90;;;;;;4941506;29;20027;-86
2022/01/12 09:25:24;;;;;;;22.13;14.27;;;-0.60;99.90;;;;;;4957451;29;20023;-87
2022/01/12 09:27:50;;;;;;;19.55;12.35;;;-0.80;99.90;;;;;;4941497;29;20094;-86
2022/01/12 09:30:18;;;;;;;20.58;12.27;;;-0.80;99.90;;;;;;4957217;29;20395;-87
2022/01/12 09:32:45;;;;;;;16.77;10.60;;;-0.90;99.90;;;;;;4940184;29;20031;-87
2022/01/12 09:35:12;;;;;;;23.52;12.23;;;-0.90;99.90;;;;;;4958090;29;20043;-87
2022/01/12 09:37:38;;;;;;;21.50;12.05;;;-0.90;99.90;;;;;;4941386;29;20058;-87
2022/01/12 09:40:05;;;;;;;21.92;11.75;;;-0.80;99.90;;;;;;4957696;29;20067;-87
2022/01/12 09:42:43;;;;;;;22.23;11.88;;;-0.80;99.90;;;;;;4957360;28;20047;-85
2022/01/12 09:45:14;;;;;;;19.25;11.13;;;-0.70;99.90;;;;;;4940939;29;20039;-84
2022/01/12 09:47:42;;;;;;;23.17;11.55;;;-0.70;99.90;;;;;;4941308;29;20098;-84
2022/01/12 09:50:10;;;;;;;17.42;10.38;;;-0.60;99.90;;;;;;4941771;29;20403;-87
2022/01/12 09:52:36;;;;;;;18.50;11.05;;;-0.50;99.90;;;;;;4941147;29;20525;-85
2022/01/12 09:55:02;;;;;;;22.60;12.75;;;-0.30;99.90;;;;;;4956643;29;20027;-85
2022/01/12 09:57:28;;;;;;;16.42;9.52;;;0.10;99.90;;;;;;4955984;29;20483;-84
2022/01/12 09:59:54;;;;;;;16.58;10.15;;;0.90;99.90;;;;;;4956138;29;20031;-85
2022/01/12 10:02:21;;;;;;;15.45;9.13;;;1.70;99.90;;;;;;4956950;28;20082;-85
2022/01/12 10:04:47;;;;;;;15.80;9.07;;;2.10;99.90;;;;;;4956556;29;20038;-85
2022/01/12 10:07:14;;;;;;;14.43;9.73;;;2.40;99.90;;;;;;4956927;29;20039;-87
2022/01/12 10:09:48;;;;;;;14.35;8.63;;;2.30;99.90;;;;;;4956867;29;20035;-87
2022/01/12 10:12:19;;;;;;;18.75;10.52;;;1.50;99.90;;;;;;4956926;29;20031;-87
2022/01/12 10:14:55;;;;;;;16.52;10.23;;;1.00;99.90;;;;;;4940903;29;20086;-87
2022/01/12 10:17:35;;;;;;;18.95;11.55;;;0.90;99.90;;;;;;4941022;29;20070;-88
2022/01/12 10:20:22;;;;;;;20.38;11.75;;;1.00;99.90;;;;;;4940876;29;20477;-88
2022/01/12 10:22:59;;;;;;;19.63;11.75;;;1.30;99.90;;;;;;4956784;29;20103;-85
2022/01/12 10:25:27;;;;;;;16.95;10.57;;;1.90;99.90;;;;;;4957680;29;20031;-85
2022/01/12 10:27:54;;;;;;;18.17;10.50;;;2.00;99.90;;;;;;4940722;29;20483;-86
2022/01/12 10:30:26;;;;;;;15.55;11.05;;;1.90;99.90;;;;;;4940609;29;20039;-85
2022/01/12 10:33:05;;;;;;;17.67;11.70;;;1.40;99.90;;;;;;4940161;29;20035;-86
2022/01/12 10:35:41;;;;;;;22.90;12.65;;;1.20;99.90;;;;;;4940297;29;20487;-86
2022/01/12 10:38:17;;;;;;;21.23;12.63;;;1.40;99.90;;;;;;4956365;29;20457;-86
2022/01/12 10:40:43;;;;;;;17.92;11.75;;;1.90;99.90;;;;;;4940467;29;20027;-86
2022/01/12 10:43:37;;;;;;;21.20;12.98;;;2.00;99.90;;;;;;4956321;29;20042;-86
2022/01/12 10:46:08;;;;;;;19.05;12.63;;;2.10;99.90;;;;;;4940210;29;20035;-87
2022/01/12 10:48:54;;;;;;;20.40;13.32;;;2.10;99.90;;;;;;4956300;29;20073;-85
2022/01/12 10:51:26;;;;;;;19.75;13.10;;;2.10;99.90;;;;;;4957364;29;20035;-86
2022/01/12 10:54:41;;;;;;;21.88;13.82;;;2.20;99.90;;;;;;4940088;29;20035;-86
2022/01/12 10:57:22;;;;;;;23.00;13.35;;;2.00;99.90;;;;;;4940411;29;20039;-85
2022/01/12 11:00:18;;;;;;;21.75;12.98;;;2.10;99.90;;;;;;4941424;29;20178;-87
2022/01/12 11:06:16;;;;;;;19.40;12.15;;;2.60;99.90;;;;;;4930478;29;20399;-88
2022/01/12 11:08:47;;;;;;;21.73;13.68;;;1.90;99.90;;;;;;4956000;29;20357;-87
2022/01/12 11:11:19;;;;;;;28.20;14.98;;;1.50;99.90;;;;;;4940016;29;20028;-88
2022/01/12 11:13:47;;;;;;;36.90;18.52;;;1.10;99.90;;;;;;4939359;29;20070;-88
2022/01/12 11:16:15;;;;;;;32.15;16.25;;;0.90;99.90;;;;;;4940236;29;20129;-88
2022/01/12 11:18:41;;;;;;;32.35;17.17;;;0.80;99.90;;;;;;4955793;29;20054;-87
2022/01/12 11:21:22;;;;;;;45.10;20.60;;;0.90;99.90;;;;;;4956058;29;20027;-88
2022/01/12 11:23:50;;;;;;;49.28;21.63;;;1.00;99.90;;;;;;4940119;29;20038;-88
2022/01/12 11:26:24;;;;;;;35.50;18.30;;;0.80;99.90;;;;;;4956385;29;20391;-88
2022/01/12 11:28:51;;;;;;;40.28;19.05;;;0.70;99.90;;;;;;4940013;29;20041;-89
2022/01/12 11:31:27;;;;;;;30.20;16.83;;;0.80;99.90;;;;;;4939945;29;20046;-87
2022/01/12 11:33:53;;;;;;;30.63;17.10;;;0.80;99.90;;;;;;4939838;29;20031;-88
2022/01/12 11:36:28;;;;;;;32.88;16.63;;;1.10;99.90;;;;;;4939427;29;20437;-88
2022/01/12 11:39:19;;;;;;;30.27;17.20;;;1.30;99.90;;;;;;4939550;29;20027;-87
2022/01/12 11:41:47;;;;;;;21.90;14.05;;;1.20;99.90;;;;;;4955975;28;20028;-88
2022/01/12 11:44:20;;;;;;;20.15;12.88;;;1.50;99.90;;;;;;4939753;29;20049;-87
2022/01/12 11:46:51;;;;;;;23.05;13.98;;;1.70;99.90;;;;;;4939399;29;20086;-87
2022/01/12 11:49:46;;;;;;;23.65;15.23;;;1.90;99.90;;;;;;4939636;29;20072;-88
2022/01/12 11:52:24;;;;;;;20.20;13.00;;;2.20;99.90;;;;;;4939611;29;20043;-88
2022/01/12 11:55:11;;;;;;;20.42;13.45;;;2.80;99.90;;;;;;4938693;29;20039;-87
2022/01/12 11:57:39;;;;;;;29.90;16.75;;;3.50;99.90;;;;;;4942372;29;20031;-88
2022/01/12 12:00:13;;;;;;;26.63;15.95;;;3.80;99.90;;;;;;4943419;29;20152;-88
2022/01/12 12:02:40;;;;;;;17.48;11.05;;;4.50;99.90;;;;;;4943381;29;20719;-88
2022/01/12 12:05:14;;;;;;;21.50;12.57;;;5.20;99.90;;;;;;4959345;29;20109;-88
2022/01/12 12:08:02;;;;;;;16.90;12.05;;;5.30;99.90;;;;;;4943523;29;20035;-88
2022/01/12 12:10:30;;;;;;;19.15;12.85;;;4.60;99.90;;;;;;4944080;29;20532;-87
2022/01/12 12:12:57;;;;;;;17.02;12.15;;;3.90;99.90;;;;;;4943485;29;20043;-87
2022/01/12 12:15:24;;;;;;;23.23;13.85;;;3.20;99.90;;;;;;4943409;29;20036;-88
2022/01/12 12:17:51;;;;;;;22.10;13.35;;;2.60;99.90;;;;;;4943707;29;20078;-87
2022/01/12 12:20:25;;;;;;;22.95;13.75;;;2.10;99.90;;;;;;4943576;29;20480;-88
2022/01/12 12:22:51;;;;;;;21.25;13.48;;;1.70;99.90;;;;;;4959822;29;20162;-87
2022/01/12 12:25:28;;;;;;;23.70;14.13;;;1.50;99.90;;;;;;4958932;29;20027;-87
2022/01/12 12:28:00;;;;;;;25.35;15.95;;;1.30;99.90;;;;;;4959649;29;20042;-88
2022/01/12 12:30:28;;;;;;;28.52;16.08;;;1.20;99.90;;;;;;4943679;29;20035;-88
2022/01/12 12:33:04;;;;;;;27.98;16.75;;;1.10;99.90;;;;;;4943124;29;20039;-86
2022/01/12 12:35:32;;;;;;;25.35;15.63;;;1.00;99.90;;;;;;4943025;29;20042;-87
2022/01/12 12:38:06;;;;;;;25.90;15.88;;;1.00;99.90;;;;;;4942753;29;20055;-87
2022/01/12 12:40:33;;;;;;;22.48;13.70;;;0.90;99.90;;;;;;4942712;29;20039;-88
2022/01/12 12:43:05;;;;;;;22.33;13.68;;;1.10;99.90;;;;;;4959077;29;20062;-88
2022/01/12 12:45:44;;;;;;;19.05;12.18;;;1.20;99.90;;;;;;4942955;29;20082;-87
2022/01/12 12:48:32;;;;;;;23.17;13.27;;;1.50;99.90;;;;;;4942774;29;20046;-87
2022/01/12 12:51:02;;;;;;;21.85;13.25;;;1.80;99.90;;;;;;4948622;29;20539;-87
2022/01/12 12:53:34;;;;;;;23.08;12.52;;;1.90;99.90;;;;;;4943493;29;20041;-88
2022/01/12 12:56:00;;;;;;;26.40;14.07;;;1.90;99.90;;;;;;4942717;29;20039;-87
2022/01/12 12:58:39;;;;;;;24.30;11.77;;;1.90;99.90;;;;;;4942849;29;20031;-86
2022/01/12 13:01:10;;;;;;;16.85;10.85;;;1.90;99.90;;;;;;4942746;29;20435;-85
2022/01/12 13:03:36;;;;;;;18.98;11.07;;;2.00;99.90;;;;;;4958817;29;20114;-87
2022/01/12 13:06:02;;;;;;;17.50;10.45;;;2.00;99.90;;;;;;4942565;29;20055;-86
2022/01/12 13:08:28;;;;;;;22.05;13.18;;;2.20;99.90;;;;;;4958415;28;20071;-87
2022/01/12 13:10:54;;;;;;;30.60;12.80;;;2.40;99.90;;;;;;4958105;29;20061;-86
2022/01/12 13:13:20;;;;;;;22.20;12.93;;;2.50;99.90;;;;;;4941560;29;20041;-87
2022/01/12 13:15:46;;;;;;;23.08;11.98;;;2.50;99.90;;;;;;4957837;29;20468;-86
2022/01/12 13:18:20;;;;;;;14.73;10.23;;;2.30;99.90;;;;;;4957450;29;20043;-86
2022/01/12 13:21:08;;;;;;;22.40;13.32;;;2.30;99.90;;;;;;4941900;29;20500;-86
2022/01/12 13:23:40;;;;;;;24.02;12.45;;;2.30;99.90;;;;;;4941310;29;20066;-86
2022/01/12 13:30:37;;;;;;;19.50;11.55;;;2.50;99.90;;;;;;4959226;29;20039;-87
2022/01/12 13:33:03;;;;;;;21.45;10.27;;;2.50;99.90;;;;;;4957078;29;20039;-86
2022/01/12 13:35:33;;;;;;;17.73;10.68;;;2.50;99.90;;;;;;4940960;29;20050;-85
2022/01/12 13:38:01;;;;;;;26.05;12.27;;;2.40;99.90;;;;;;4941754;29;20086;-86
2022/01/12 13:40:38;;;;;;;18.75;11.88;;;2.20;99.90;;;;;;4941693;29;20035;-86
2022/01/12 13:43:05;;;;;;;20.10;12.35;;;2.00;99.90;;;;;;4941614;29;20093;-85
2022/01/12 13:45:41;;;;;;;18.52;11.35;;;1.90;99.90;;;;;;4957169;29;20134;-86
2022/01/12 13:48:18;;;;;;;21.80;11.95;;;1.80;99.90;;;;;;4940587;29;20071;-86
2022/01/12 13:50:49;;;;;;;19.30;11.95;;;1.60;99.90;;;;;;4941629;29;20034;-86
2022/01/12 13:53:16;;;;;;;22.63;14.02;;;1.40;99.90;;;;;;4940903;29;20045;-86
2022/01/12 13:55:54;;;;;;;19.77;11.85;;;1.30;99.90;;;;;;4940988;29;20070;-86
2022/01/12 13:58:26;;;;;;;21.98;13.02;;;1.10;99.90;;;;;;4958239;29;20047;-86
2022/01/12 14:00:58;;;;;;;;;;;1.00;99.90;;;;;;4942266;29;20035;-86
2022/01/12 14:03:24;;;;;;;20.60;13.13;;;0.80;99.90;;;;;;4940843;29;19910;-86
2022/01/12 14:05:58;;;;;;;24.98;14.45;;;0.80;99.90;;;;;;4957359;29;20031;-86